| Date | Time | Temp. (oF) | Dew Point (oF) | Rel. Hum. (%) | Press. (in.) | Wind Dir. | Wind Speed (mph) | Hourly Rainfall (in.) |
|
|---|---|---|---|---|---|---|---|---|---|
| 1 | 11/24 | 00:00 | 25 | 23 | 93 | 30.04 | WSW | 1 | 0.00 |
| 2 | 11/23 | 23:00 | 26 | 23 | 90 | 30.05 | WSW | 1 | 0.00 |
| 3 | 11/23 | 22:00 | 26 | 23 | 89 | 30.05 | WSW | 1 | 0.00 |
| 4 | 11/23 | 21:00 | 27 | 23 | 88 | 30.03 | WNW | 1 | 0.00 |
| 5 | 11/23 | 20:00 | 29 | 23 | 79 | 30.02 | WNW | 1 | 0.00 |
| 6 | 11/23 | 19:00 | 30 | 22 | 73 | 30.02 | WNW | 0 | 0.00 |
| 7 | 11/23 | 18:00 | 33 | 22 | 66 | 30.03 | WNW | 1 | 0.00 |
| 8 | 11/23 | 17:00 | 37 | 21 | 53 | 30.02 | WNW | 2 | 0.00 |
| 9 | 11/23 | 16:00 | 38 | 21 | 51 | 30.01 | W | 3 | 0.00 |
| 10 | 11/23 | 15:00 | 39 | 20 | 47 | 30.00 | NNW | 3 | 0.00 |
| 11 | 11/23 | 14:00 | 40 | 21 | 48 | 30.03 | NNW | 3 | 0.00 |
| 12 | 11/23 | 13:00 | 39 | 21 | 49 | 30.05 | NNE | 4 | 0.00 |
| 13 | 11/23 | 12:00 | 38 | 21 | 51 | 30.09 | NW | 5 | 0.00 |
| 14 | 11/23 | 11:00 | 36 | 21 | 56 | 30.13 | W | 6 | 0.00 |
| 15 | 11/23 | 10:00 | 35 | 22 | 60 | 30.15 | WNW | 4 | 0.00 |
| 16 | 11/23 | 09:00 | 33 | 22 | 65 | 30.15 | NNW | 4 | 0.00 |
| 17 | 11/23 | 08:00 | 25 | 21 | 86 | 30.17 | NNW | 1 | 0.00 |
| 18 | 11/23 | 07:00 | 23 | 20 | 90 | 30.15 | NNW | 1 | 0.00 |
| 19 | 11/23 | 06:00 | 24 | 19 | 83 | 30.13 | NNW | 1 | 0.00 |
| 20 | 11/23 | 05:00 | 26 | 19 | 77 | 30.13 | NNW | 0 | 0.00 |
| 21 | 11/23 | 04:00 | 28 | 20 | 73 | 30.13 | NNW | 1 | 0.00 |
| 22 | 11/23 | 03:00 | 29 | 20 | 71 | 30.13 | NNW | 4 | 0.00 |
| 23 | 11/23 | 02:00 | 29 | 20 | 69 | 30.13 | NNW | 5 | 0.00 |
| 24 | 11/23 | 01:00 | 30 | 21 | 70 | 30.13 | WNW | 6 | 0.00 |